首页
METAR-TAF:

METAR-TAF

机场 :

约阿尼纳, 希腊

纬度: 39-41-47N, 经度: 20-49-21E, 海拔: 475米

当前天气观测

该预报发布于44分钟前的17:50 UTC
风速5节,风向
温度 23°C
湿度 44%
气压 1008 hPa
能见度10公里或以上
多云层高于3000英尺

METAR: LGIO 051750Z 10005KT 9999 BKN030 23/10 Q1008

时间: 21:34 (18:34 UTC)

预报

该预报发布于1小时和34分钟前的17:00 UTC
预报有效从05日的 18点(UTC)到 06日的 03点(UTC)
风速5节,风向东转东南
能见度10公里或以上
少量云层高于2000英尺
多云层高于8000英尺
几率 40% :
短暂存在
从 05日的 18点(UTC)到 06日的 03点(UTC)
能見度: 7000
少量云层高于2000英尺, 塔状积云.
散云层高于2500英尺
多云层高于7000英尺
阵雨

TAF: LGIO 051700Z 0518/0603 12005KT 9999 FEW020 BKN080 PROB40 TEMPO 0518/0603 7000 SHRA FEW020TCU SCT025 BKN070

超过4000个机场的气象观测和天气预报(METAR&TAF报告)。

可查询的气象台以黄色和红色小点在地图上表示。

将鼠标移到小点上方,可查看气象台名称。

然后点击查看天气观测和预报。

如需切换地图:点击带黑十字的绿色按钮放大地图;点击带横线的绿色按钮缩小地图;或者点击绿色箭头查看邻近地区的地图。


METAR-TAF: